Time;durP1;ratioP1;P1;durP2;ratioP2;P2;SDS_P1;SDS_P2;PMS_P1;PMS_P2;Temp;Humidity;BMP_temperature;BMP_pressure;BME280_temperature;BME280_humidity;BME280_pressure;Samples;Min_cycle;Max_cycle;Signal;HPM_P1;HPM_P2
2022/06/12 00:00:46;;;;;;;33.10;21.70;;;;;;;19.13;60.13;99329.09;109355;1274;22472;-61
2022/06/12 00:03:15;;;;;;;35.30;22.00;;;;;;;19.19;60.20;99332.67;109355;1274;22492;-61
2022/06/12 00:05:45;;;;;;;33.50;22.80;;;;;;;19.25;60.16;99333.38;109237;1274;140041;-61
2022/06/12 00:08:11;;;;;;;42.80;24.60;;;;;;;19.29;60.27;99332.95;109314;1274;23428;-61
2022/06/12 00:10:40;;;;;;;39.50;24.00;;;;;;;19.32;60.62;99332.40;109381;1274;137990;-62
2022/06/12 00:13:07;;;;;;;38.90;23.60;;;;;;;19.35;61.22;99333.70;109363;1274;23367;-61
2022/06/12 00:15:34;;;;;;;39.00;24.30;;;;;;;19.36;61.82;99335.10;109252;1274;137965;-62
2022/06/12 00:18:03;;;;;;;28.90;20.10;;;;;;;19.37;62.16;99331.20;109429;1274;22414;-62
2022/06/12 00:20:30;;;;;;;32.50;19.40;;;;;;;19.39;62.70;99333.09;109355;1274;23260;-61
2022/06/12 00:22:57;;;;;;;28.00;18.60;;;;;;;19.41;63.08;99331.48;109246;1274;139333;-61
2022/06/12 00:25:28;;;;;;;28.40;19.00;;;;;;;19.43;63.34;99330.33;109361;1274;22776;-61
2022/06/12 00:27:55;;;;;;;23.60;17.90;;;;;;;19.47;63.49;99330.50;109187;1274;139034;-61
2022/06/12 00:30:23;;;;;;;27.80;17.70;;;;;;;19.50;63.85;99334.52;109429;1274;23086;-61
2022/06/12 00:32:52;;;;;;;23.70;18.00;;;;;;;19.51;64.08;99336.48;109323;1274;22471;-61
2022/06/12 00:35:25;;;;;;;23.80;16.50;;;;;;;19.50;64.20;99334.39;109297;1274;139283;-61
2022/06/12 00:37:52;;;;;;;23.80;16.30;;;;;;;19.51;64.42;99334.33;109450;1274;22441;-61
2022/06/12 00:40:20;;;;;;;21.90;15.80;;;;;;;19.53;64.63;99336.19;109381;1274;138602;-61
2022/06/12 00:42:49;;;;;;;19.80;15.70;;;;;;;19.56;64.80;99332.30;109394;1274;22448;-61
2022/06/12 00:45:52;;;;;;;21.30;15.50;;;;;;;19.59;64.98;99330.11;109328;1274;22481;-61
2022/06/12 00:48:21;;;;;;;19.50;15.30;;;;;;;19.64;65.04;99330.62;108838;1280;22521;-61
2022/06/12 00:50:53;;;;;;;18.60;13.90;;;;;;;19.65;65.32;99333.89;108930;1279;22411;-61
2022/06/12 00:53:24;;;;;;;23.90;14.00;;;;;;;19.64;65.66;99330.80;108746;1280;140123;-61
2022/06/12 00:55:56;;;;;;;26.30;14.90;;;;;;;19.64;65.63;99332.69;108737;1280;22438;-60
2022/06/12 00:58:24;;;;;;;18.70;14.90;;;;;;;19.65;65.99;99331.23;108493;1280;139135;-60
2022/06/12 01:00:51;;;;;;;19.60;14.40;;;;;;;19.64;66.07;99334.26;108659;1281;22641;-61
2022/06/12 01:03:18;;;;;;;22.80;15.30;;;;;;;19.63;66.29;99329.70;108686;1281;22504;-61
2022/06/12 01:08:30;;;;;;;15.60;13.40;;;;;;;19.60;66.72;99324.13;108736;1280;23560;-62
2022/06/12 01:11:01;;;;;;;19.60;14.50;;;;;;;19.57;66.97;99323.59;108727;1280;139853;-62
2022/06/12 01:13:30;;;;;;;21.80;13.80;;;;;;;19.57;67.08;99323.91;108716;1280;22492;-61
2022/06/12 01:15:59;;;;;;;20.00;14.20;;;;;;;19.57;67.22;99327.91;108534;1281;140332;-61
2022/06/12 01:18:31;;;;;;;19.90;14.50;;;;;;;19.55;67.39;99323.48;108755;1280;22589;-61
2022/06/12 01:21:22;;;;;;;20.50;14.70;;;;;;;19.53;67.60;99324.16;108606;1281;22477;-60
2022/06/12 01:24:11;;;;;;;18.40;14.50;;;;;;;19.51;67.69;99317.23;108571;1280;138367;-60
2022/06/12 01:26:56;;;;;;;20.60;14.60;;;;;;;19.53;67.72;99316.61;106849;1274;24087;-60
2022/06/12 01:29:51;;;;;;;18.30;14.00;;;;;;;19.56;67.82;99316.04;105113;1274;140315;-62
2022/06/12 01:32:47;;;;;;;23.90;14.70;;;;;;;19.58;67.76;99312.80;105192;1275;22578;-62
2022/06/12 01:35:50;;;;;;;23.10;14.60;;;;;;;19.59;67.74;99312.31;104947;1275;139075;-60
2022/06/12 01:38:50;;;;;;;19.60;13.80;;;;;;;19.60;67.78;99311.40;109312;1274;22492;-60
2022/06/12 01:41:25;;;;;;;18.50;13.00;;;;;;;19.60;68.02;99310.30;109167;1273;140082;-61
2022/06/12 01:44:15;;;;;;;19.10;13.80;;;;;;;19.60;68.06;99311.40;109247;1274;22462;-61
2022/06/12 01:46:52;;;;;;;20.10;13.70;;;;;;;19.59;68.42;99309.04;109191;1274;140044;-61
2022/06/12 01:49:37;;;;;;;16.20;13.80;;;;;;;19.58;68.75;99310.07;109315;1274;22425;-61
2022/06/12 01:52:10;;;;;;;21.80;13.10;;;;;;;19.57;68.99;99310.39;109257;1274;139033;-61
2022/06/12 01:54:41;;;;;;;18.20;14.20;;;;;;;19.55;69.21;99308.73;109397;1274;23394;-61
2022/06/12 01:57:28;;;;;;;17.00;13.20;;;;;;;19.54;69.45;99307.80;109278;1274;23301;-61
2022/06/12 01:59:56;;;;;;;18.20;14.00;;;;;;;19.53;69.55;99310.77;109323;1276;23137;-61
2022/06/12 02:02:32;;;;;;;19.40;13.30;;;;;;;19.53;69.80;99309.34;109452;1274;22567;-61
2022/06/12 02:05:12;;;;;;;19.50;14.70;;;;;;;19.53;69.94;99310.34;109212;1273;138384;-61
2022/06/12 02:07:48;;;;;;;15.40;13.30;;;;;;;19.52;70.09;99306.10;109343;1274;23537;-61
2022/06/12 02:10:23;;;;;;;17.70;13.20;;;;;;;19.50;70.17;99307.30;109299;1274;139455;-61
2022/06/12 02:13:12;;;;;;;17.00;13.60;;;;;;;19.51;70.18;99309.55;109321;1274;22429;-61
2022/06/12 02:15:55;;;;;;;16.30;13.20;;;;;;;19.50;70.31;99306.42;109228;1274;138590;-61
2022/06/12 02:18:34;;;;;;;21.60;13.60;;;;;;;19.50;70.52;99310.59;109372;1274;22518;-61
2022/06/12 02:21:19;;;;;;;17.30;13.90;;;;;;;19.50;70.71;99304.54;109300;1274;22463;-61
2022/06/12 02:23:51;;;;;;;14.60;12.50;;;;;;;19.51;70.91;99305.52;109256;1274;139960;-61
2022/06/12 02:26:19;;;;;;;16.30;13.00;;;;;;;19.52;71.22;99305.88;109314;1276;22445;-60
2022/06/12 02:28:56;;;;;;;15.30;12.50;;;;;;;19.51;71.63;99307.50;109209;1274;138616;-61
2022/06/12 02:31:43;;;;;;;20.10;14.20;;;;;;;19.50;71.92;99308.70;109272;1274;22532;-61
2022/06/12 02:34:22;;;;;;;18.90;13.70;;;;;;;19.52;72.14;99312.02;109012;1274;138953;-61
2022/06/12 02:36:51;;;;;;;17.00;14.40;;;;;;;19.52;72.33;99313.16;109290;1272;22426;-61
2022/06/12 02:39:22;;;;;;;16.40;13.50;;;;;;;19.54;72.65;99314.38;109101;1274;22585;-61
2022/06/12 02:42:01;;;;;;;15.30;13.60;;;;;;;19.56;72.66;99315.78;109199;1274;139202;-61
2022/06/12 02:45:02;;;;;;;14.80;13.30;;;;;;;19.57;72.78;99307.10;109343;1274;22562;-61
2022/06/12 02:47:30;;;;;;;17.00;13.30;;;;;;;19.59;72.82;99308.54;109194;1274;140671;-61
2022/06/12 02:49:57;;;;;;;20.70;14.40;;;;;;;19.60;73.11;99303.77;109284;1274;23115;-61
2022/06/12 02:52:31;;;;;;;15.20;13.50;;;;;;;19.63;73.33;99304.15;109320;1274;139935;-61
2022/06/12 02:55:32;;;;;;;20.10;14.20;;;;;;;19.64;73.56;99301.58;109457;1273;22445;-61
2022/06/12 02:58:23;;;;;;;15.50;13.10;;;;;;;19.67;73.86;99301.45;109213;1274;139775;-61
2022/06/12 03:01:02;;;;;;;18.80;14.40;;;;;;;19.69;74.18;99303.16;109293;1274;22427;-61
2022/06/12 03:03:40;;;;;;;18.60;13.30;;;;;;;19.71;74.39;99299.00;109152;1274;139789;-61
2022/06/12 03:06:07;;;;;;;15.90;14.30;;;;;;;19.73;74.56;99294.18;109221;1274;23107;-61
2022/06/12 03:08:58;;;;;;;16.60;13.60;;;;;;;19.76;75.00;99299.53;109193;1276;22509;-61
2022/06/12 03:11:27;;;;;;;16.00;13.50;;;;;;;19.76;75.20;99295.41;109340;1274;138284;-61
2022/06/12 03:13:55;;;;;;;17.40;13.60;;;;;;;19.79;75.35;99298.34;109435;1274;22555;-61
2022/06/12 03:16:30;;;;;;;15.50;13.90;;;;;;;19.82;75.46;99302.56;109287;1274;138647;-61
2022/06/12 03:18:59;;;;;;;17.60;14.20;;;;;;;19.85;75.69;99303.88;109344;1274;22558;-61
2022/06/12 03:21:33;;;;;;;18.70;15.10;;;;;;;19.87;75.89;99304.38;109180;1274;139681;-60
2022/06/12 03:24:11;;;;;;;19.30;13.90;;;;;;;19.88;76.23;99307.05;109394;1274;23100;-61
2022/06/12 03:27:19;;;;;;;18.00;14.30;;;;;;;19.90;76.38;99304.54;109302;1274;22556;-61
2022/06/12 03:30:16;;;;;;;18.40;15.20;;;;;;;19.93;76.54;99302.52;108533;1274;138530;-61
2022/06/12 03:33:08;;;;;;;32.30;14.70;;;;;;;19.97;76.80;99300.11;105022;1274;23846;-61
2022/06/12 03:36:07;;;;;;;17.80;14.30;;;;;;;20.00;76.98;99299.69;104993;1275;138461;-61
2022/06/12 03:38:59;;;;;;;18.70;14.70;;;;;;;20.04;77.18;99299.49;105139;1274;25616;-60
2022/06/12 03:41:48;;;;;;;23.00;14.40;;;;;;;20.10;77.27;99299.19;104994;1274;139104;-60
2022/06/12 03:44:29;;;;;;;19.00;14.30;;;;;;;20.15;77.34;99295.65;105121;1275;25365;-62
2022/06/12 03:47:05;;;;;;;17.90;13.70;;;;;;;20.20;77.45;99297.52;104874;1274;139218;-60
2022/06/12 03:49:49;;;;;;;15.50;13.90;;;;;;;20.25;77.52;99300.90;105044;1272;24277;-61
2022/06/12 03:52:25;;;;;;;17.70;13.50;;;;;;;20.30;77.47;99297.66;104975;1274;138458;-61
2022/06/12 03:54:55;;;;;;;18.80;15.00;;;;;;;20.34;77.38;99295.70;104893;1274;24385;-61
2022/06/12 04:00:31;;;;;;;18.70;14.10;;;;;;;20.44;77.20;99298.48;105178;1274;24952;-62
2022/06/12 04:03:08;;;;;;;17.10;13.80;;;;;;;20.49;77.14;99296.77;105144;1274;22557;-61
2022/06/12 04:05:37;;;;;;;17.00;14.10;;;;;;;20.55;76.94;99297.40;109219;1274;138596;-62
2022/06/12 04:08:06;;;;;;;19.10;14.30;;;;;;;20.60;76.83;99301.54;109353;1274;22538;-61
2022/06/12 04:10:35;;;;;;;20.70;14.40;;;;;;;20.66;76.78;99301.77;109247;1274;138949;-61
2022/06/12 04:13:03;;;;;;;16.00;13.40;;;;;;;20.73;76.65;99303.91;109310;1274;22564;-61
2022/06/12 04:15:42;;;;;;;15.60;13.60;;;;;;;20.80;76.45;99302.55;109147;1274;138469;-62
2022/06/12 04:18:09;;;;;;;19.20;14.50;;;;;;;20.87;76.24;99304.97;109350;1274;22455;-62
2022/06/12 04:20:55;;;;;;;20.10;14.10;;;;;;;20.90;75.94;99302.66;109220;1276;22490;-60
2022/06/12 04:23:39;;;;;;;14.60;13.10;;;;;;;21.00;75.87;99307.73;109133;1274;139259;-60
2022/06/12 04:26:12;;;;;;;15.70;14.10;;;;;;;21.07;75.63;99316.26;109282;1274;23132;-62
2022/06/12 04:28:41;;;;;;;17.20;14.30;;;;;;;21.14;75.22;99317.57;109130;1274;139332;-62
2022/06/12 04:31:18;;;;;;;16.00;14.40;;;;;;;21.20;74.90;99320.04;109370;1274;22460;-62
2022/06/12 04:34:04;;;;;;;16.50;14.80;;;;;;;21.23;74.83;99317.25;109163;1275;138538;-63
2022/06/12 04:36:31;;;;;;;18.00;15.50;;;;;;;21.26;74.67;99318.68;109408;1274;22249;-62
2022/06/12 04:38:58;;;;;;;18.40;15.20;;;;;;;21.30;74.39;99318.17;109437;1273;23175;-62
2022/06/12 04:41:29;;;;;;;16.60;14.30;;;;;;;21.33;74.16;99315.00;109130;1275;139212;-62
2022/06/12 04:43:56;;;;;;;21.30;14.60;;;;;;;21.37;73.95;99316.48;109303;1274;23413;-61
2022/06/12 04:46:24;;;;;;;16.10;14.40;;;;;;;21.42;73.82;99318.27;109182;1274;138695;-61
2022/06/12 04:48:52;;;;;;;17.80;15.80;;;;;;;21.45;73.61;99318.55;109181;1274;22475;-62
2022/06/12 04:51:18;;;;;;;21.60;15.90;;;;;;;21.47;73.25;99313.42;109388;1274;22459;-60
2022/06/12 04:53:46;;;;;;;20.70;14.60;;;;;;;21.49;73.18;99316.12;109119;1274;138033;-60
2022/06/12 04:56:14;;;;;;;21.80;14.30;;;;;;;21.51;72.71;99317.59;109119;1276;22399;-60
2022/06/12 04:58:41;;;;;;;18.20;13.30;;;;;;;21.54;72.14;99315.52;109214;1274;139444;-61
2022/06/12 05:01:08;;;;;;;17.70;13.80;;;;;;;21.60;71.94;99312.98;109404;1274;22310;-61
2022/06/12 05:03:35;;;;;;;20.90;14.40;;;;;;;21.68;71.77;99318.77;109227;1274;139077;-60
2022/06/12 05:06:02;;;;;;;16.60;14.00;;;;;;;21.76;71.39;99315.35;109384;1273;23297;-60
2022/06/12 05:08:29;;;;;;;18.30;12.90;;;;;;;21.84;71.48;99316.85;109367;1274;22472;-62
2022/06/12 05:10:56;;;;;;;18.90;14.10;;;;;;;21.94;71.09;99319.35;109194;1274;138922;-62
2022/06/12 05:13:23;;;;;;;14.60;12.10;;;;;;;22.03;70.67;99318.41;109238;1274;23157;-61
2022/06/12 05:15:50;;;;;;;17.50;13.90;;;;;;;22.12;70.26;99319.69;109103;1274;140022;-61
2022/06/12 05:18:17;;;;;;;16.40;13.10;;;;;;;22.23;69.92;99321.63;109359;1274;22454;-61
2022/06/12 05:20:45;;;;;;;17.50;12.70;;;;;;;22.39;69.55;99323.08;109355;1274;22445;-61
2022/06/12 05:23:17;;;;;;;16.60;12.70;;;;;;;22.61;69.11;99328.31;109338;1274;138623;-62
2022/06/12 05:25:44;;;;;;;16.30;12.70;;;;;;;22.89;68.65;99329.38;109456;1274;22431;-62
2022/06/12 05:28:12;;;;;;;15.90;11.90;;;;;;;23.19;67.88;99327.70;109253;1274;139200;-62
2022/06/12 05:30:40;;;;;;;16.70;12.30;;;;;;;23.51;66.66;99328.31;109341;1274;22451;-64
2022/06/12 05:33:07;;;;;;;14.50;12.80;;;;;;;23.77;65.44;99329.42;109212;1276;23214;-65
2022/06/12 05:35:36;;;;;;;13.60;10.60;;;;;;;23.95;64.56;99328.95;109251;1274;139588;-64
2022/06/12 05:38:04;;;;;;;14.20;11.20;;;;;;;24.10;64.14;99325.92;109402;1274;22529;-64
2022/06/12 05:40:32;;;;;;;16.50;11.00;;;;;;;24.26;63.43;99316.94;109439;1274;22437;-65
2022/06/12 05:43:00;;;;;;;13.90;11.20;;;;;;;24.43;63.08;99320.15;109445;1274;22527;-63
2022/06/12 05:45:27;;;;;;;15.20;10.40;;;;;;;24.59;62.59;99315.27;109335;1274;22448;-63
2022/06/12 05:47:56;;;;;;;12.70;10.70;;;;;;;24.79;62.30;99319.38;109306;1274;22428;-63
2022/06/12 05:50:25;;;;;;;11.70;10.30;;;;;;;24.91;61.46;99317.80;109312;1274;22433;-63
2022/06/12 05:52:52;;;;;;;12.10;10.30;;;;;;;24.91;61.28;99324.23;109397;1273;22469;-62
2022/06/12 05:55:19;;;;;;;15.80;9.20;;;;;;;24.87;61.15;99323.48;109409;1274;22247;-62
2022/06/12 05:57:45;;;;;;;10.80;9.70;;;;;;;24.80;61.26;99327.07;109525;1273;22520;-62
2022/06/12 06:00:23;;;;;;;14.10;10.40;;;;;;;24.78;61.59;99326.45;109361;1274;22465;-62
2022/06/12 06:02:50;;;;;;;11.60;10.40;;;;;;;24.78;61.65;99327.56;109539;1273;22406;-61
2022/06/12 06:05:18;;;;;;;13.40;10.80;;;;;;;24.76;61.17;99328.38;109494;1273;23477;-62
2022/06/12 06:07:44;;;;;;;14.00;10.20;;;;;;;24.71;60.52;99330.38;109395;1274;22411;-61
2022/06/12 06:10:14;;;;;;;10.40;9.30;;;;;;;24.60;60.35;99335.20;109474;1272;22371;-61
2022/06/12 06:12:41;;;;;;;12.50;9.50;;;;;;;24.49;60.15;99333.52;109065;1274;289863;-61
2022/06/12 06:16:58;;;;;;;18.00;8.70;;;;;;;24.39;60.81;99328.61;102297;1309;545940;-62
2022/06/12 06:19:25;;;;;;;13.00;9.50;;;;;;;24.29;60.70;99333.52;104401;1283;22572;-61
2022/06/12 06:21:52;;;;;;;11.30;9.10;;;;;;;24.22;60.88;99333.93;104344;1286;22566;-61
2022/06/12 06:24:19;;;;;;;11.80;9.70;;;;;;;24.18;60.70;99338.56;104166;1286;24345;-61
2022/06/12 06:26:46;;;;;;;11.00;7.80;;;;;;;24.16;60.85;99339.55;105062;1277;25271;-61
2022/06/12 06:29:13;;;;;;;8.90;7.70;;;;;;;24.13;60.59;99337.55;104558;1278;24251;-60
2022/06/12 06:31:39;;;;;;;9.30;8.20;;;;;;;24.11;60.55;99336.45;104723;1277;350099;-61
2022/06/12 06:34:06;;;;;;;14.70;9.10;;;;;;;24.12;60.96;99335.75;105019;1277;22569;-61
2022/06/12 06:36:33;;;;;;;11.60;9.10;;;;;;;24.16;60.85;99337.61;104889;1278;22579;-62
2022/06/12 06:39:00;;;;;;;12.00;8.40;;;;;;;24.20;60.40;99337.04;104979;1274;24321;-61
2022/06/12 06:41:28;;;;;;;14.40;8.60;;;;;;;24.20;59.97;99330.38;105117;1278;23759;-62
2022/06/12 06:46:41;;;;;;;8.60;7.80;;;;;;;24.21;59.30;99325.13;105129;1278;22605;-61
2022/06/12 06:49:08;;;;;;;8.60;7.80;;;;;;;24.20;59.06;99328.45;109338;1276;23793;-62
2022/06/12 06:51:35;;;;;;;11.00;7.90;;;;;;;24.19;58.65;99329.70;109397;1275;22464;-62
2022/06/12 06:54:02;;;;;;;14.60;8.30;;;;;;;24.18;59.02;99329.50;109376;1275;23079;-63
2022/06/12 06:56:28;;;;;;;8.60;7.70;;;;;;;24.18;59.00;99328.08;109454;1274;22470;-63
2022/06/12 06:58:55;;;;;;;8.60;7.70;;;;;;;24.22;59.01;99328.75;109275;1277;22475;-62
2022/06/12 07:01:22;;;;;;;8.90;7.90;;;;;;;24.26;59.28;99330.00;109400;1274;22456;-62
2022/06/12 07:03:52;;;;;;;13.50;8.60;;;;;;;24.34;59.10;99323.86;109432;1274;23525;-63
2022/06/12 07:06:20;;;;;;;8.90;8.00;;;;;;;24.39;58.44;99324.31;109354;1274;23603;-62
2022/06/12 07:08:52;;;;;;;12.50;8.50;;;;;;;24.42;58.22;99319.21;109216;1276;23565;-63
2022/06/12 07:11:19;;;;;;;10.50;8.80;;;;;;;24.45;58.51;99322.43;109289;1274;22569;-62
2022/06/12 07:13:46;;;;;;;10.10;9.10;;;;;;;24.49;58.10;99316.64;107526;1276;23653;-63
2022/06/12 07:16:13;;;;;;;10.20;8.20;;;;;;;24.53;58.21;99316.13;107291;1275;22431;-63
2022/06/12 07:18:40;;;;;;;10.00;7.50;;;;;;;24.59;58.13;99315.98;107266;1276;22524;-63
2022/06/12 07:21:07;;;;;;;12.90;8.40;;;;;;;24.66;57.40;99317.30;107170;1277;22601;-61
2022/06/12 07:23:34;;;;;;;8.60;7.80;;;;;;;24.71;56.97;99317.95;107308;1274;24742;-63
2022/06/12 07:26:04;;;;;;;9.20;8.30;;;;;;;24.71;56.86;99316.38;107257;1275;23851;-62
2022/06/12 07:28:32;;;;;;;9.60;8.10;;;;;;;24.73;56.87;99323.52;107199;1277;23780;-62
2022/06/12 07:30:59;;;;;;;9.90;8.20;;;;;;;24.77;56.87;99321.16;107229;1277;22454;-63
2022/06/12 07:33:26;;;;;;;8.90;8.00;;;;;;;24.82;56.65;99321.68;107231;1275;24239;-63
2022/06/12 07:35:53;;;;;;;9.50;8.00;;;;;;;24.85;56.38;99318.58;108109;1277;22461;-62
2022/06/12 07:38:21;;;;;;;9.40;8.50;;;;;;;24.89;56.29;99319.96;109130;1277;22394;-62
2022/06/12 07:40:50;;;;;;;9.80;8.50;;;;;;;24.92;56.47;99319.66;109294;1276;22422;-62
2022/06/12 07:43:17;;;;;;;9.30;8.10;;;;;;;24.97;56.43;99320.02;108990;1277;22598;-62
2022/06/12 07:45:44;;;;;;;10.40;9.30;;;;;;;24.99;56.26;99319.78;109294;1274;23246;-62
2022/06/12 07:48:11;;;;;;;15.30;9.10;;;;;;;25.00;55.82;99321.95;109399;1274;22598;-62
2022/06/12 07:50:40;;;;;;;9.90;8.80;;;;;;;25.01;55.96;99314.59;109570;1274;22530;-62
2022/06/12 07:53:08;;;;;;;13.40;8.70;;;;;;;25.05;56.27;99313.81;109411;1274;23124;-62
2022/06/12 07:55:35;;;;;;;9.70;8.40;;;;;;;25.10;55.56;99316.80;109254;1277;23260;-63
2022/06/12 07:58:02;;;;;;;12.40;8.00;;;;;;;25.14;55.66;99316.73;109382;1276;22447;-63
2022/06/12 08:00:29;;;;;;;9.70;8.80;;;;;;;25.17;55.88;99315.77;109379;1274;22451;-63
2022/06/12 08:02:56;;;;;;;9.40;8.60;;;;;;;25.21;55.33;99316.60;109439;1274;22535;-62
2022/06/12 08:05:23;;;;;;;12.40;9.00;;;;;;;25.25;55.60;99316.77;109411;1276;22416;-63
2022/06/12 08:07:50;;;;;;;9.90;8.90;;;;;;;25.31;55.96;99320.27;109335;1277;22430;-62
2022/06/12 08:10:17;;;;;;;11.30;8.40;;;;;;;25.35;56.07;99322.06;109428;1274;22270;-62
2022/06/12 08:12:45;;;;;;;12.10;8.90;;;;;;;25.39;55.99;99320.08;109340;1277;22296;-62
2022/06/12 08:15:16;;;;;;;11.00;8.90;;;;;;;25.43;56.13;99321.42;109443;1277;23193;-63
2022/06/12 08:17:43;;;;;;;9.10;7.50;;;;;;;25.48;55.53;99325.45;109297;1276;22243;-63
2022/06/12 08:20:25;;;;;;;9.20;7.70;;;;;;;25.52;54.37;99326.45;109376;1276;22455;-60
2022/06/12 08:22:57;;;;;;;10.30;8.90;;;;;;;25.54;54.29;99324.18;109296;1277;23456;-60
2022/06/12 08:25:25;;;;;;;9.70;8.20;;;;;;;25.57;54.41;99326.23;109292;1276;23161;-63
2022/06/12 08:27:52;;;;;;;9.70;7.90;;;;;;;25.61;53.96;99325.16;109450;1274;22541;-60
2022/06/12 08:30:19;;;;;;;9.90;8.90;;;;;;;25.64;53.74;99327.58;109421;1275;23218;-60
2022/06/12 08:32:47;;;;;;;11.10;9.00;;;;;;;25.66;54.30;99326.17;109454;1273;22505;-61
2022/06/12 08:35:16;;;;;;;9.20;8.30;;;;;;;25.67;53.97;99324.52;105339;1278;23491;-60
2022/06/12 08:37:43;;;;;;;10.20;9.20;;;;;;;25.67;54.47;99323.17;109522;1274;22390;-61
2022/06/12 08:40:32;;;;;;;9.20;7.90;;;;;;;25.69;54.30;99322.17;109461;1274;23267;-62
2022/06/12 08:43:02;;;;;;;9.30;8.20;;;;;;;25.73;54.29;99325.69;109397;1274;23031;-61
2022/06/12 08:45:34;;;;;;;8.30;7.60;;;;;;;25.77;53.98;99323.06;109455;1274;22463;-61
2022/06/12 08:48:11;;;;;;;8.60;7.60;;;;;;;25.79;53.93;99322.48;109332;1276;22486;-61
2022/06/12 08:50:46;;;;;;;9.50;8.50;;;;;;;25.85;54.21;99320.03;109294;1276;23370;-61
2022/06/12 08:53:38;;;;;;;10.60;8.10;;;;;;;25.90;54.17;99322.02;109424;1276;23148;-62
2022/06/12 08:56:19;;;;;;;16.20;7.80;;;;;;;25.98;53.22;99321.55;105572;1277;24493;-62
2022/06/12 08:58:52;;;;;;;8.10;7.30;;;;;;;26.06;52.93;99318.53;105092;1274;24251;-61
2022/06/12 09:01:19;;;;;;;10.80;7.40;;;;;;;26.12;52.92;99314.97;109450;1274;23716;-62
2022/06/12 09:03:49;;;;;;;12.20;7.40;;;;;;;26.18;52.95;99322.52;109381;1276;22447;-62
2022/06/12 09:06:22;;;;;;;8.90;7.40;;;;;;;26.21;52.26;99316.13;109391;1274;23374;-62
2022/06/12 09:09:00;;;;;;;8.20;7.30;;;;;;;26.25;52.65;99316.21;109388;1276;22432;-61
2022/06/12 09:11:37;;;;;;;7.80;7.10;;;;;;;26.28;52.74;99308.95;109191;1276;22311;-62
2022/06/12 09:14:09;;;;;;;11.60;6.40;;;;;;;26.34;52.12;99310.05;109344;1276;22408;-62
2022/06/12 09:16:54;;;;;;;8.90;6.90;;;;;;;26.40;52.05;99310.17;109295;1274;22485;-62
2022/06/12 09:19:50;;;;;;;7.90;7.10;;;;;;;26.46;51.45;99305.89;109530;1274;22227;-62
2022/06/12 09:22:29;;;;;;;8.80;7.90;;;;;;;26.51;51.47;99307.69;108875;1279;23288;-62
2022/06/12 09:24:58;;;;;;;11.10;6.30;;;;;;;26.56;51.56;99308.33;108679;1281;22523;-62
2022/06/12 09:27:54;;;;;;;7.70;5.90;;;;;;;26.62;50.89;99312.10;108546;1282;22544;-62
2022/06/12 09:30:48;;;;;;;9.40;6.20;;;;;;;26.63;50.14;99310.38;108775;1280;22503;-62
2022/06/12 09:33:23;;;;;;;9.90;5.90;;;;;;;26.60;49.53;99310.80;108647;1281;22447;-62
2022/06/12 09:36:01;;;;;;;6.40;5.50;;;;;;;26.61;50.03;99315.67;108495;1282;22537;-62
2022/06/12 09:38:56;;;;;;;10.30;6.00;;;;;;;26.62;49.57;99309.16;108513;1282;22420;-62
2022/06/12 09:41:45;;;;;;;8.60;5.60;;;;;;;26.62;48.85;99308.84;108619;1282;22425;-62
2022/06/12 09:44:33;;;;;;;11.10;5.80;;;;;;;26.59;49.42;99309.42;108687;1281;22537;-62
2022/06/12 09:47:12;;;;;;;6.00;5.40;;;;;;;26.62;49.39;99309.95;108558;1281;22922;-62
2022/06/12 09:50:06;;;;;;;6.00;5.10;;;;;;;26.63;48.80;99308.23;108685;1281;22751;-63
2022/06/12 09:52:55;;;;;;;7.00;5.30;;;;;;;26.66;47.99;99306.52;108737;1282;22422;-62
2022/06/12 09:55:42;;;;;;;6.30;5.30;;;;;;;26.66;47.99;99309.55;108330;1281;22746;-62
2022/06/12 09:58:14;;;;;;;9.70;4.80;;;;;;;26.65;48.15;99310.27;104559;1282;22783;-62
2022/06/12 10:00:45;;;;;;;6.30;5.10;;;;;;;26.66;48.10;99307.96;109259;1274;23464;-63
2022/06/12 10:03:24;;;;;;;6.10;4.60;;;;;;;26.69;47.84;99301.46;109398;1274;22426;-63
2022/06/12 10:06:03;;;;;;;5.40;4.70;;;;;;;26.71;47.35;99301.59;109450;1274;22424;-63
2022/06/12 10:08:30;;;;;;;6.60;4.80;;;;;;;26.74;46.88;99301.48;109435;1274;22395;-63
2022/06/12 10:11:08;;;;;;;7.60;4.50;;;;;;;26.76;46.59;99299.52;109437;1274;22533;-63
2022/06/12 10:13:38;;;;;;;4.60;3.90;;;;;;;26.76;46.54;99300.41;109281;1276;22449;-63
2022/06/12 10:16:10;;;;;;;11.00;4.50;;;;;;;26.76;45.78;99293.38;109421;1276;23129;-62
2022/06/12 10:18:40;;;;;;;6.20;4.60;;;;;;;26.78;45.98;99297.25;109361;1276;22451;-62
2022/06/12 10:21:09;;;;;;;4.60;4.00;;;;;;;26.80;45.92;99295.44;109326;1277;22470;-62
2022/06/12 10:23:36;;;;;;;6.10;4.10;;;;;;;26.81;45.30;99297.86;109432;1276;23235;-62
2022/06/12 10:26:20;;;;;;;4.70;4.10;;;;;;;26.82;44.98;99294.29;109406;1277;23386;-63
2022/06/12 10:28:47;;;;;;;5.00;4.60;;;;;;;26.85;44.73;99292.00;109432;1277;22243;-63
2022/06/12 10:31:19;;;;;;;4.30;3.70;;;;;;;26.91;44.38;99287.33;109290;1277;22456;-63
2022/06/12 10:33:46;;;;;;;6.70;4.80;;;;;;;26.95;43.07;99287.69;109395;1277;22505;-63
2022/06/12 10:36:28;;;;;;;4.90;3.90;;;;;;;26.99;42.74;99292.92;107501;1277;22573;-62
2022/06/12 10:39:17;;;;;;;7.10;4.40;;;;;;;27.00;43.35;99286.05;105156;1277;23687;-62
2022/06/12 10:41:46;;;;;;;4.50;4.00;;;;;;;26.98;44.04;99282.86;105260;1277;24140;-61
2022/06/12 10:44:35;;;;;;;6.80;4.10;;;;;;;26.97;44.48;99281.40;105249;1277;22715;-62
2022/06/12 10:47:10;;;;;;;9.40;4.70;;;;;;;26.99;44.35;99279.73;105210;1278;22646;-62
2022/06/12 10:49:36;;;;;;;5.90;4.80;;;;;;;27.01;44.42;99278.48;105159;1277;22554;-62
2022/06/12 10:52:06;;;;;;;5.80;5.30;;;;;;;27.03;45.40;99277.80;105227;1277;22567;-62
2022/06/12 10:54:35;;;;;;;10.30;5.00;;;;;;;27.08;45.45;99279.98;109373;1274;23165;-63
2022/06/12 10:57:17;;;;;;;7.70;4.90;;;;;;;27.14;45.01;99282.29;109359;1276;22513;-62
2022/06/12 10:59:53;;;;;;;5.80;5.20;;;;;;;27.14;45.14;99283.66;109409;1276;23019;-63
2022/06/12 11:02:54;;;;;;;6.20;4.50;;;;;;;27.14;45.06;99271.98;109425;1276;22465;-63
2022/06/12 11:05:34;;;;;;;7.70;4.50;;;;;;;27.14;45.14;99277.91;109039;1275;22600;-63
2022/06/12 11:08:23;;;;;;;5.60;5.10;;;;;;;27.15;45.02;99279.59;105168;1277;24301;-63
2022/06/12 11:11:11;;;;;;;6.80;5.00;;;;;;;27.13;44.77;99274.61;105268;1277;24930;-62
2022/06/12 11:14:03;;;;;;;5.00;4.60;;;;;;;27.10;44.17;99276.98;109354;1277;22439;-63
2022/06/12 11:16:29;;;;;;;5.20;4.70;;;;;;;27.06;44.26;99272.43;109298;1274;22463;-62
2022/06/12 11:19:21;;;;;;;5.80;4.10;;;;;;;27.02;44.09;99275.95;109359;1274;22519;-63
2022/06/12 11:22:12;;;;;;;6.30;4.50;;;;;;;26.99;43.81;99267.04;108671;1276;137630;-62
2022/06/12 11:24:52;;;;;;;7.30;4.70;;;;;;;26.97;44.37;99261.02;107051;1280;22476;-64
2022/06/12 11:27:27;;;;;;;6.30;5.00;;;;;;;26.98;43.77;99258.96;106685;1277;137895;-63
2022/06/12 11:30:15;;;;;;;5.50;5.00;;;;;;;26.99;43.74;99255.77;106779;1277;22988;-63
2022/06/12 11:32:48;;;;;;;5.40;4.90;;;;;;;27.01;44.16;99254.20;106889;1278;138140;-63
2022/06/12 11:35:22;;;;;;;6.20;4.60;;;;;;;27.05;44.46;99260.91;107030;1278;23727;-63
2022/06/12 11:37:57;;;;;;;9.40;6.10;;;;;;;27.09;44.52;99256.36;106933;1280;138838;-63
2022/06/12 11:40:24;;;;;;;6.00;5.40;;;;;;;27.07;44.88;99251.45;107027;1277;22378;-63
2022/06/12 11:43:23;;;;;;;7.30;5.50;;;;;;;27.03;44.70;99248.33;106997;1278;24678;-64
2022/06/12 11:46:05;;;;;;;6.20;5.00;;;;;;;26.97;44.73;99244.09;106835;1280;138870;-63
2022/06/12 11:49:00;;;;;;;5.70;4.60;;;;;;;26.92;44.55;99242.61;106988;1277;22514;-63
2022/06/12 11:51:54;;;;;;;5.10;4.60;;;;;;;26.90;44.11;99239.45;106889;1278;138427;-63
2022/06/12 11:54:30;;;;;;;5.30;4.80;;;;;;;26.87;44.39;99240.69;106876;1277;23875;-63
2022/06/12 11:57:10;;;;;;;4.80;4.40;;;;;;;26.88;44.99;99238.70;106799;1278;138285;-63